Last 24 Hours

UH Manoa Atmospheric Sciences

15 Minute Data | Pacific/Honolulu
as of 6/21/21 5:28 AM HST
Station Date Time Temp (°F) RH (%) Dew Pt (°F) Wind Spd (mph) Wind Dir (°) Wind Gust (mph) Latest Rain (In) Solar Rad (W/m2) Heat Index (°F) Barometric Press (inHg) Daily Rain (In) Daily Min Temp (°F) Daily Max Temp (°F) Daily Max Wind (mph)
UH Manoa Atmospheric Sciences 6/21/21 0515 73.8 82 68.0 1.2 ENE | 65 3.4 0.00 0 73.8 30.08 0.00 72.7 76.3 9.9
UH Manoa Atmospheric Sciences 6/21/21 0500 72.9 85 68.1 1.3 ENE | 74 3.7 0.00 0 72.9 30.08 0.00 72.7 76.3 9.9
UH Manoa Atmospheric Sciences 6/21/21 0445 73.0 85 68.2 2.2 NE | 54 4.4 0.00 0 73.0 30.07 0.00 72.7 76.3 9.9
UH Manoa Atmospheric Sciences 6/21/21 0430 73.1 84 68.1 2.2 NE | 41 4.7 0.00 0 73.1 30.07 0.00 72.9 76.3 9.9
UH Manoa Atmospheric Sciences 6/21/21 0415 73.3 83 67.9 0.9 NE | 51 3.1 0.00 0 73.3 30.07 0.00 73.1 76.3 9.9
UH Manoa Atmospheric Sciences 6/21/21 0400 73.5 83 68.0 1.9 NE | 41 3.4 0.00 0 73.5 30.07 0.00 73.3 76.3 9.9
UH Manoa Atmospheric Sciences 6/21/21 0345 73.5 82 67.7 1.8 NE | 54 3.6 0.00 0 73.5 30.07 0.00 73.3 76.3 9.9
UH Manoa Atmospheric Sciences 6/21/21 0330 73.7 82 67.8 2.6 NE | 50 4.2 0.00 0 73.7 30.07 0.00 73.5 76.3 9.9
UH Manoa Atmospheric Sciences 6/21/21 0315 74.2 80 67.8 3.3 NE | 56 6.1 0.00 0 74.2 30.07 0.00 73.6 76.3 9.9
UH Manoa Atmospheric Sciences 6/21/21 0300 74.5 80 67.9 4.5 NE | 50 8.4 0.00 0 74.5 30.07 0.00 73.9 76.3 9.9
UH Manoa Atmospheric Sciences 6/21/21 0245 74.2 81 68.2 4.1 NE | 52 9.9 0.00 0 74.2 30.08 0.00 73.9 76.3 9.9
UH Manoa Atmospheric Sciences 6/21/21 0230 74.7 79 67.8 4.5 NE | 54 8.1 0.00 0 74.7 30.08 0.00 74.4 76.3 9.4
UH Manoa Atmospheric Sciences 6/21/21 0215 74.5 81 68.2 4.2 NE | 53 9.4 0.00 0 74.5 30.08 0.00 74.4 76.3 9.4
UH Manoa Atmospheric Sciences 6/21/21 0200 74.9 80 68.2 2.6 ENE | 58 8.5 0.00 0 74.9 30.08 0.00 74.6 76.3 8.5
UH Manoa Atmospheric Sciences 6/21/21 0145 75.1 78 67.8 2.3 NE | 56 6.8 0.00 0 75.1 30.09 0.00 74.9 76.3 8.0
UH Manoa Atmospheric Sciences 6/21/21 0130 75.4 76 67.5 3.1 ENE | 69 6.0 0.00 0 75.4 30.09 0.00 75.1 76.3 8.0
UH Manoa Atmospheric Sciences 6/21/21 0115 76.0 75 67.6 2.7 E | 87 5.9 0.00 0 76.0 30.09 0.00 75.5 76.3 8.0
UH Manoa Atmospheric Sciences 6/21/21 0100 76.0 76 67.9 3.7 ENE | 71 8.0 0.00 0 76.0 30.09 0.00 75.5 76.2 8.0
UH Manoa Atmospheric Sciences 6/21/21 0045 75.8 77 68.0 3.4 ENE | 67 7.2 0.00 0 75.8 30.10 0.00 75.5 76.1 7.8
UH Manoa Atmospheric Sciences 6/21/21 0030 75.8 76 67.9 3.4 ENE | 64 6.9 0.00 0 75.8 30.10 0.00 75.5 76.1 7.8
UH Manoa Atmospheric Sciences 6/21/21 0015 75.6 76 67.6 3.3 ENE | 60 7.8 0.00 0 75.6 30.11 0.00 75.5 75.9 7.8
UH Manoa Atmospheric Sciences 6/21/21 0000 75.8 76 67.8 4.7 NE | 51 9.1 0.00 0 75.8 30.11 0.02 72.4 82.2 21.3
UH Manoa Atmospheric Sciences 6/20/21 2345 75.9 75 67.5 3.6 NE | 52 8.0 0.00 0 75.9 30.12 0.02 72.4 82.2 21.3
UH Manoa Atmospheric Sciences 6/20/21 2330 76.0 75 67.5 3.2 NE | 54 7.4 0.00 0 76.0 30.12 0.02 72.4 82.2 21.3
UH Manoa Atmospheric Sciences 6/20/21 2315 76.1 75 67.4 2.8 ENE | 65 6.0 0.00 0 76.1 30.12 0.02 72.4 82.2 21.3
UH Manoa Atmospheric Sciences 6/20/21 2300 76.2 74 67.2 3.7 ENE | 58 6.4 0.00 0 76.2 30.13 0.02 72.4 82.2 21.3
UH Manoa Atmospheric Sciences 6/20/21 2245 76.4 74 67.4 4.2 ENE | 65 6.6 0.00 0 76.4 30.13 0.02 72.4 82.2 21.3
UH Manoa Atmospheric Sciences 6/20/21 2230 76.2 74 67.3 3.6 ENE | 62 8.1 0.00 0 76.2 30.13 0.02 72.4 82.2 21.3
UH Manoa Atmospheric Sciences 6/20/21 2215 76.4 73 67.4 4.5 ENE | 63 8.8 0.00 0 76.4 30.12 0.02 72.4 82.2 21.3
UH Manoa Atmospheric Sciences 6/20/21 2200 76.3 74 67.3 5.4 ENE | 60 14.0 0.00 0 76.3 30.12 0.02 72.4 82.2 21.3
UH Manoa Atmospheric Sciences 6/20/21 2145 76.3 73 67.1 4.0 ENE | 64 7.8 0.00 0 76.3 30.12 0.02 72.4 82.2 21.3
UH Manoa Atmospheric Sciences 6/20/21 2130 76.4 73 67.3 4.0 ENE | 68 8.1 0.00 0 76.4 30.12 0.02 72.4 82.2 21.3
UH Manoa Atmospheric Sciences 6/20/21 2115 76.3 74 67.5 4.4 ENE | 71 8.6 0.00 0 76.3 30.11 0.02 72.4 82.2 21.3
UH Manoa Atmospheric Sciences 6/20/21 2100 76.1 75 67.5 5.9 ENE | 72 9.5 0.00 0 76.1 30.10 0.02 72.4 82.2 21.3
UH Manoa Atmospheric Sciences 6/20/21 2045 76.0 75 67.7 4.1 ENE | 62 9.6 0.00 0 76.0 30.10 0.02 72.4 82.2 21.3
UH Manoa Atmospheric Sciences 6/20/21 2030 76.1 76 68.2 5.3 ENE | 57 11.2 0.00 0 76.1 30.10 0.02 72.4 82.2 21.3
UH Manoa Atmospheric Sciences 6/20/21 2015 76.2 76 68.0 5.6 NE | 50 10.7 0.00 0 76.2 30.09 0.02 72.4 82.2 21.3
UH Manoa Atmospheric Sciences 6/20/21 2000 76.4 75 67.7 6.5 ENE | 63 11.6 0.00 0 76.4 30.09 0.02 72.4 82.2 21.3
UH Manoa Atmospheric Sciences 6/20/21 1945 76.5 74 67.6 5.5 ENE | 66 11.9 0.00 0 76.5 30.09 0.02 72.4 82.2 21.3
UH Manoa Atmospheric Sciences 6/20/21 1930 77.0 72 67.1 4.4 NE | 56 7.1 0.00 0 77.0 30.08 0.02 72.4 82.2 21.3
UH Manoa Atmospheric Sciences 6/20/21 1915 77.1 72 67.2 5.6 NE | 53 12.4 0.00 7 77.1 30.08 0.02 72.4 82.2 21.3
UH Manoa Atmospheric Sciences 6/20/21 1900 77.4 71 67.4 7.2 NE | 46 14.6 0.00 24 77.4 30.07 0.02 72.4 82.2 21.3
UH Manoa Atmospheric Sciences 6/20/21 1845 77.6 71 67.4 6.9 NE | 47 14.4 0.00 104 77.6 30.07 0.02 72.4 82.2 21.3
UH Manoa Atmospheric Sciences 6/20/21 1830 77.3 72 67.7 6.7 NE | 48 13.3 0.00 80 77.3 30.06 0.02 72.4 82.2 21.3
UH Manoa Atmospheric Sciences 6/20/21 1815 79.3 67 67.2 6.5 NE | 38 14.2 0.00 171 79.3 30.05 0.02 72.4 82.2 21.3
UH Manoa Atmospheric Sciences 6/20/21 1800 79.5 65 66.8 7.2 NE | 45 16.7 0.00 214 79.5 30.05 0.02 72.4 82.2 21.3
UH Manoa Atmospheric Sciences 6/20/21 1745 79.8 64 66.6 7.0 NNE | 32 14.6 0.00 285 80.1 30.04 0.02 72.4 82.2 21.3
UH Manoa Atmospheric Sciences 6/20/21 1730 79.7 64 66.4 7.0 NNE | 32 12.8 0.00 362 79.9 30.04 0.02 72.4 82.2 21.3
UH Manoa Atmospheric Sciences 6/20/21 1715 79.8 64 66.4 9.8 NE | 40 16.7 0.00 331 80.8 30.04 0.02 72.4 82.2 21.3
UH Manoa Atmospheric Sciences 6/20/21 1700 79.9 64 66.7 8.5 NE | 36 18.9 0.00 512 81.4 30.04 0.02 72.4 82.2 21.3
UH Manoa Atmospheric Sciences 6/20/21 1645 80.1 63 66.5 8.1 NE | 41 15.2 0.00 344 81.5 30.04 0.02 72.4 82.2 21.3
UH Manoa Atmospheric Sciences 6/20/21 1630 80.2 64 66.8 9.1 NE | 36 18.1 0.00 472 82.0 30.04 0.02 72.4 82.2 21.3
UH Manoa Atmospheric Sciences 6/20/21 1615 80.8 63 66.9 9.0 NE | 45 18.7 0.00 537 83.1 30.04 0.02 72.4 82.2 21.3
UH Manoa Atmospheric Sciences 6/20/21 1600 80.7 63 66.8 8.3 NE | 42 15.6 0.00 576 83.0 30.04 0.02 72.4 82.2 21.3
UH Manoa Atmospheric Sciences 6/20/21 1545 80.6 62 66.3 8.8 NE | 50 16.6 0.00 392 82.8 30.04 0.02 72.4 82.2 21.3
UH Manoa Atmospheric Sciences 6/20/21 1530 80.4 62 66.0 13.6 NE | 38 20.7 0.00 643 82.4 30.04 0.02 72.4 82.2 21.3
UH Manoa Atmospheric Sciences 6/20/21 1515 80.8 61 66.3 11.4 NE | 38 19.2 0.00 893 83.0 30.04 0.02 72.4 82.2 21.3
UH Manoa Atmospheric Sciences 6/20/21 1500 81.1 61 66.6 10.6 NE | 41 19.1 0.00 927 83.4 30.04 0.02 72.4 82.2 21.3
UH Manoa Atmospheric Sciences 6/20/21 1445 81.0 63 67.1 11.0 NE | 46 20.4 0.00 974 83.5 30.05 0.02 72.4 82.2 21.3
UH Manoa Atmospheric Sciences 6/20/21 1430 80.8 63 67.2 11.8 NE | 38 20.8 0.00 964 83.2 30.05 0.02 72.4 82.2 21.3
UH Manoa Atmospheric Sciences 6/20/21 1415 81.1 61 66.6 9.0 NE | 37 16.1 0.00 899 83.4 30.05 0.02 72.4 82.2 21.3
UH Manoa Atmospheric Sciences 6/20/21 1400 80.6 62 66.3 10.2 NE | 35 20.0 0.00 996 82.7 30.05 0.02 72.4 82.2 21.3
UH Manoa Atmospheric Sciences 6/20/21 1345 81.1 61 66.3 8.6 NE | 48 16.9 0.00 993 83.3 30.06 0.02 72.4 82.2 21.3
UH Manoa Atmospheric Sciences 6/20/21 1330 80.7 60 65.5 9.7 NE | 39 16.3 0.00 864 82.6 30.06 0.02 72.4 81.8 21.3
UH Manoa Atmospheric Sciences 6/20/21 1315 80.2 61 65.7 11.1 NE | 39 18.7 0.00 905 81.9 30.06 0.02 72.4 81.8 21.3
UH Manoa Atmospheric Sciences 6/20/21 1300 80.6 62 66.3 8.5 NE | 44 16.0 0.00 636 82.8 30.07 0.02 72.4 81.8 21.3
UH Manoa Atmospheric Sciences 6/20/21 1245 80.7 62 66.4 7.8 NE | 49 15.6 0.00 572 82.9 30.07 0.02 72.4 81.8 21.3
UH Manoa Atmospheric Sciences 6/20/21 1230 80.3 62 66.3 9.6 NE | 37 16.2 0.00 861 82.2 30.08 0.02 72.4 81.8 21.3
UH Manoa Atmospheric Sciences 6/20/21 1215 80.1 63 66.3 9.1 NE | 38 15.9 0.00 925 81.6 30.08 0.02 72.4 81.8 21.3
UH Manoa Atmospheric Sciences 6/20/21 1200 80.8 60 65.6 9.3 NE | 34 17.5 0.00 863 82.8 30.09 0.02 72.4 81.8 21.3
UH Manoa Atmospheric Sciences 6/20/21 1145 80.9 59 65.0 9.3 NE | 45 17.0 0.00 1,019 82.7 30.09 0.02 72.4 81.8 21.3
UH Manoa Atmospheric Sciences 6/20/21 1130 80.5 59 64.8 10.2 NE | 38 21.3 0.00 1,009 82.3 30.10 0.02 72.4 81.4 21.3
UH Manoa Atmospheric Sciences 6/20/21 1115 80.6 59 65.1 7.8 NE | 40 13.9 0.00 911 82.5 30.10 0.02 72.4 81.4 19.2
UH Manoa Atmospheric Sciences 6/20/21 1100 80.5 58 64.5 9.1 NE | 44 16.6 0.00 960 82.2 30.10 0.02 72.4 81.2 19.2
UH Manoa Atmospheric Sciences 6/20/21 1045 80.5 60 65.3 7.5 NE | 35 14.2 0.00 925 82.5 30.10 0.02 72.4 81.0 19.2
UH Manoa Atmospheric Sciences 6/20/21 1030 80.4 61 65.8 5.9 NE | 43 10.4 0.00 794 82.2 30.10 0.02 72.4 81.0 19.2
UH Manoa Atmospheric Sciences 6/20/21 1015 79.4 62 65.1 9.0 NE | 38 17.4 0.00 645 79.4 30.10 0.02 72.4 80.1 19.2
UH Manoa Atmospheric Sciences 6/20/21 1000 79.4 63 65.8 7.2 NE | 50 14.4 0.00 737 79.5 30.10 0.02 72.4 80.1 19.2
UH Manoa Atmospheric Sciences 6/20/21 0945 78.8 63 65.1 8.8 NE | 50 15.5 0.00 673 78.8 30.10 0.02 72.4 79.4 19.2
UH Manoa Atmospheric Sciences 6/20/21 0930 78.2 65 65.7 8.6 NE | 45 19.2 0.00 611 78.2 30.10 0.02 72.4 78.9 19.2
UH Manoa Atmospheric Sciences 6/20/21 0915 77.7 68 66.5 6.8 NE | 43 17.1 0.00 590 77.7 30.10 0.02 72.4 78.4 17.1
UH Manoa Atmospheric Sciences 6/20/21 0900 76.7 73 67.3 4.5 NE | 50 10.1 0.00 334 76.7 30.11 0.02 72.4 77.1 11.9
UH Manoa Atmospheric Sciences 6/20/21 0845 76.2 75 67.7 3.0 NE | 51 6.0 0.00 208 76.2 30.10 0.02 72.4 76.8 11.9
UH Manoa Atmospheric Sciences 6/20/21 0830 75.8 75 67.2 3.6 ENE | 65 8.7 0.00 196 75.8 30.10 0.02 72.4 76.7 11.9
UH Manoa Atmospheric Sciences 6/20/21 0815 76.3 72 66.6 5.4 NE | 44 9.7 0.00 126 76.3 30.10 0.02 72.4 76.7 11.9
UH Manoa Atmospheric Sciences 6/20/21 0800 76.3 73 67.1 3.5 NE | 52 9.4 0.00 209 76.3 30.10 0.02 72.4 76.7 11.9
UH Manoa Atmospheric Sciences 6/20/21 0745 75.2 76 67.1 3.1 ENE | 73 7.5 0.00 192 75.2 30.09 0.02 72.4 75.6 11.9
UH Manoa Atmospheric Sciences 6/20/21 0730 75.1 75 66.5 2.8 ENE | 67 6.7 0.00 59 75.1 30.09 0.02 72.4 75.6 11.9
UH Manoa Atmospheric Sciences 6/20/21 0715 75.0 74 66.3 3.4 NE | 55 6.8 0.00 59 75.0 30.08 0.02 72.4 75.5 11.9
UH Manoa Atmospheric Sciences 6/20/21 0700 75.1 75 66.6 2.0 ENE | 57 4.0 0.00 119 75.1 30.08 0.02 72.4 75.5 11.9
UH Manoa Atmospheric Sciences 6/20/21 0645 74.4 76 66.4 2.0 E | 80 7.6 0.00 56 74.4 30.07 0.02 72.4 75.0 11.9
UH Manoa Atmospheric Sciences 6/20/21 0630 74.3 76 66.2 1.0 E | 87 3.7 0.00 27 74.3 30.07 0.02 72.4 74.7 11.9
UH Manoa Atmospheric Sciences 6/20/21 0615 74.1 76 66.0 3.2 ENE | 59 7.7 0.00 9 74.1 30.06 0.02 72.4 74.7 11.9
UH Manoa Atmospheric Sciences 6/20/21 0600 74.0 77 66.2 3.7 ENE | 64 7.5 0.00 0 74.0 30.06 0.02 72.4 74.7 11.9
UH Manoa Atmospheric Sciences 6/20/21 0545 73.9 77 66.3 4.0 ENE | 73 8.3 0.00 0 73.9 30.05 0.02 72.4 74.7 11.9
UH Manoa Atmospheric Sciences 6/20/21 0530 73.9 78 66.7 3.4 ENE | 60 6.5 0.00 0 73.9 30.05 0.02 72.4 74.7 11.9
UH Manoa Atmospheric Sciences 6/20/21 0515 73.6 80 66.9 4.4 ENE | 67 9.0 0.00 0 73.6 30.05 0.02 72.4 74.7 11.9
Max     81.1 85 68.2 13.6 - 21.3 0.00 1,019 83.5 30.13 0.02 75.5 82.2 21.3
Avg     77.2 71 66.9 5.7 - 11.3 0.00 287 77.8 30.08 - - - -
Min     72.9 58 64.5 0.9 - 3.1 0.00 0 72.9 30.04 0.00 72.4 74.7 7.8